createdAt,value
2022-10-08T00:01:00.655Z,101346.19
2022-10-08T00:03:30.610Z,101344.56
2022-10-08T00:06:01.976Z,101339.28
2022-10-08T00:08:30.455Z,101334.69
2022-10-08T00:11:00.794Z,101333.91
2022-10-08T00:13:29.867Z,101326.72
2022-10-08T00:15:58.624Z,101334.09
2022-10-08T00:18:25.693Z,101333.13
2022-10-08T00:20:52.629Z,101326.06
2022-10-08T00:23:19.554Z,101328.78
2022-10-08T00:25:47.233Z,101333.44
2022-10-08T00:28:14.183Z,101328.19
2022-10-08T00:30:41.862Z,101328.22
2022-10-08T00:33:10.532Z,101325.25
2022-10-08T00:35:39.613Z,101323.56
2022-10-08T00:38:07.606Z,101320.97
2022-10-08T00:40:44.820Z,101325.38
2022-10-08T00:43:15.562Z,101317.59
2022-10-08T00:45:46.380Z,101322.91
2022-10-08T00:48:21.026Z,101315.84
2022-10-08T00:50:48.189Z,101315.84
2022-10-08T00:53:15.174Z,101322.00
2022-10-08T00:55:43.969Z,101317.59
2022-10-08T00:58:23.147Z,101310.72
2022-10-08T01:00:51.187Z,101309.78
2022-10-08T01:03:18.247Z,101302.72
2022-10-08T01:05:51.298Z,101302.75
2022-10-08T01:08:50.306Z,101299.22
2022-10-08T01:11:44.672Z,101292.94
2022-10-08T01:14:24.243Z,101288.56
2022-10-08T01:17:02.971Z,101286.88
2022-10-08T01:20:11.898Z,101281.63
2022-10-08T01:23:10.052Z,101285.00
2022-10-08T01:25:58.165Z,101277.97
2022-10-08T01:28:39.027Z,101281.56
2022-10-08T01:31:13.074Z,101278.03
2022-10-08T01:33:47.945Z,101280.69
2022-10-08T01:36:18.637Z,101278.84
2022-10-08T01:38:51.453Z,101283.38
2022-10-08T01:41:19.545Z,101278.91
2022-10-08T01:43:57.163Z,101274.41
2022-10-08T01:46:27.748Z,101273.53
2022-10-08T01:49:00.855Z,101269.09
2022-10-08T01:51:32.593Z,101263.72
2022-10-08T01:54:03.564Z,101269.94
2022-10-08T01:56:33.665Z,101268.91
2022-10-08T01:59:48.260Z,101268.97
2022-10-08T02:02:20.961Z,101265.47
2022-10-08T02:04:49.305Z,101261.97
2022-10-08T02:07:35.972Z,101259.38
2022-10-08T02:10:07.542Z,101258.47
2022-10-08T02:12:35.904Z,101253.28
2022-10-08T02:15:05.067Z,101263.81
2022-10-08T02:18:07.075Z,101256.75
2022-10-08T02:20:55.577Z,101259.31
2022-10-08T02:23:29.996Z,101264.69
2022-10-08T02:26:02.770Z,101260.31
2022-10-08T02:28:35.945Z,101258.53
2022-10-08T02:31:11.795Z,101259.53
2022-10-08T02:33:44.621Z,101257.59
2022-10-08T02:36:16.756Z,101258.53
2022-10-08T02:38:54.681Z,101254.88
2022-10-08T02:41:27.669Z,101252.31
2022-10-08T02:43:59.469Z,101248.72
2022-10-08T02:46:29.659Z,101247.84
2022-10-08T02:49:02.808Z,101249.66
2022-10-08T02:51:32.826Z,101248.84
2022-10-08T02:54:00.812Z,101246.22
2022-10-08T02:56:34.053Z,101243.78
2022-10-08T02:59:01.428Z,101246.31
2022-10-08T03:01:45.016Z,101241.09
2022-10-08T03:04:21.435Z,101241.94
2022-10-08T03:06:49.896Z,101241.06
2022-10-08T03:09:19.228Z,101244.56
2022-10-08T03:11:46.973Z,101247.41
2022-10-08T03:14:16.421Z,101245.44
2022-10-08T03:16:46.607Z,101246.38
2022-10-08T03:19:18.902Z,101231.44
2022-10-08T03:21:48.501Z,101225.19
2022-10-08T03:24:15.792Z,101232.09
2022-10-08T03:26:42.808Z,101231.13
2022-10-08T03:29:10.306Z,101227.91
2022-10-08T03:31:37.210Z,101237.06
2022-10-08T03:34:04.247Z,101226.53
2022-10-08T03:36:31.179Z,101218.63
2022-10-08T03:38:58.294Z,101221.44
2022-10-08T03:41:25.701Z,101217.09
2022-10-08T03:43:52.627Z,101221.50
2022-10-08T03:46:19.691Z,101226.00
2022-10-08T03:48:49.904Z,101224.81
2022-10-08T03:51:18.614Z,101228.34
2022-10-08T03:53:45.733Z,101227.47
2022-10-08T03:56:19.454Z,101231.84
2022-10-08T03:58:52.678Z,101221.22
2022-10-08T04:01:19.575Z,101221.19
2022-10-08T04:03:46.529Z,101228.16
2022-10-08T04:06:13.784Z,101228.22
2022-10-08T04:08:40.988Z,101227.16
2022-10-08T04:11:13.757Z,101233.31
2022-10-08T04:13:41.143Z,101235.19
2022-10-08T04:16:14.955Z,101222.78
2022-10-08T04:18:42.798Z,101224.66
2022-10-08T04:21:13.501Z,101224.66
2022-10-08T04:23:42.164Z,101221.03
2022-10-08T04:26:10.868Z,101233.34
2022-10-08T04:28:39.434Z,101233.06
2022-10-08T04:31:12.058Z,101232.16
2022-10-08T04:33:39.365Z,101233.47
2022-10-08T04:36:15.477Z,101230.28
2022-10-08T04:38:43.754Z,101232.91
2022-10-08T04:41:13.429Z,101245.16
2022-10-08T04:43:42.001Z,101238.88
2022-10-08T04:46:11.141Z,101244.22
2022-10-08T04:48:39.231Z,101239.34
2022-10-08T04:51:10.623Z,101245.03
2022-10-08T04:53:38.450Z,101248.88
2022-10-08T04:56:19.929Z,101254.13
2022-10-08T04:58:47.707Z,101246.66
2022-10-08T05:01:17.342Z,101252.28
2022-10-08T05:03:55.299Z,101248.13
2022-10-08T05:06:27.166Z,101254.75
2022-10-08T05:08:54.885Z,101258.19
2022-10-08T05:11:24.444Z,101259.47
2022-10-08T05:13:53.555Z,101261.00
2022-10-08T05:16:20.676Z,101261.69
2022-10-08T05:18:48.155Z,101256.59
2022-10-08T05:21:18.579Z,101255.63
2022-10-08T05:23:45.514Z,101257.50
2022-10-08T05:26:41.578Z,101256.91
2022-10-08T05:29:11.701Z,101260.75
2022-10-08T05:31:38.755Z,101264.69
2022-10-08T05:34:05.940Z,101268.75
2022-10-08T05:36:33.971Z,101263.63
2022-10-08T05:39:02.231Z,101263.56
2022-10-08T05:41:32.384Z,101265.41
2022-10-08T05:44:02.062Z,101278.03
2022-10-08T05:46:30.492Z,101277.06
2022-10-08T05:48:59.799Z,101280.28
2022-10-08T05:51:27.757Z,101267.13
2022-10-08T05:53:56.807Z,101266.97
2022-10-08T05:56:25.098Z,101273.78
2022-10-08T05:58:52.928Z,101274.66
2022-10-08T06:01:26.119Z,101269.03
2022-10-08T06:03:55.457Z,101267.94
2022-10-08T06:06:24.214Z,101277.06
2022-10-08T06:09:02.045Z,101275.16
2022-10-08T06:11:31.382Z,101282.16
2022-10-08T06:14:00.103Z,101278.34
2022-10-08T06:16:28.710Z,101275.50
2022-10-08T06:18:56.008Z,101273.41
2022-10-08T06:21:25.108Z,101283.03
2022-10-08T06:23:56.671Z,101271.91
2022-10-08T06:26:27.350Z,101282.84
2022-10-08T06:28:57.241Z,101270.94
2022-10-08T06:31:24.685Z,101277.06
2022-10-08T06:33:55.297Z,101259.72
2022-10-08T06:36:24.713Z,101273.16
2022-10-08T06:38:57.294Z,101267.50
2022-10-08T06:41:25.163Z,101268.06
2022-10-08T06:43:52.073Z,101254.75
2022-10-08T06:46:19.792Z,101259.00
2022-10-08T06:48:47.088Z,101255.69
2022-10-08T06:51:17.273Z,101242.34
2022-10-08T06:53:45.532Z,101245.84
2022-10-08T06:56:15.570Z,101242.41
2022-10-08T06:58:44.959Z,101239.22
2022-10-08T07:01:30.302Z,101249.16
2022-10-08T07:04:00.891Z,101238.06
2022-10-08T07:06:27.907Z,101240.44
2022-10-08T07:08:56.770Z,101239.31
2022-10-08T07:11:24.870Z,101253.53
2022-10-08T07:13:51.836Z,101240.84
2022-10-08T07:16:21.567Z,101245.47
2022-10-08T07:18:51.087Z,101248.34
2022-10-08T07:21:19.751Z,101241.41
2022-10-08T07:23:46.876Z,101235.53
2022-10-08T07:26:17.018Z,101243.53
2022-10-08T07:28:53.120Z,101230.16
2022-10-08T07:31:23.515Z,101239.91
2022-10-08T07:33:51.346Z,101232.16
2022-10-08T07:36:20.774Z,101231.19
2022-10-08T07:38:48.292Z,101217.94
2022-10-08T07:41:15.367Z,101218.09
2022-10-08T07:43:43.208Z,101213.41
2022-10-08T07:46:12.049Z,101221.50
2022-10-08T07:48:39.802Z,101212.88
2022-10-08T07:51:11.833Z,101206.22
2022-10-08T07:53:39.393Z,101199.38
2022-10-08T07:56:07.753Z,101205.84
2022-10-08T07:58:35.164Z,101206.97
2022-10-08T08:01:04.323Z,101202.09
2022-10-08T08:03:31.890Z,101201.66
2022-10-08T08:06:10.933Z,101197.19
2022-10-08T08:08:40.004Z,101202.44
2022-10-08T08:11:09.095Z,101192.56
2022-10-08T08:13:37.769Z,101188.66
2022-10-08T08:16:07.853Z,101198.75
2022-10-08T08:18:37.967Z,101204.50
2022-10-08T08:21:07.972Z,101203.50
2022-10-08T08:23:37.273Z,101202.22
2022-10-08T08:26:06.979Z,101200.03
2022-10-08T08:28:34.295Z,101195.34
2022-10-08T08:31:21.366Z,101196.31
2022-10-08T08:33:51.120Z,101201.84
2022-10-08T08:36:20.389Z,101190.81
2022-10-08T08:38:47.387Z,101197.47
2022-10-08T08:41:20.948Z,101186.66
2022-10-08T08:43:48.422Z,101185.44
2022-10-08T08:46:21.192Z,101186.66
2022-10-08T08:48:50.164Z,101169.75
2022-10-08T08:51:17.158Z,101182.78
2022-10-08T08:53:44.313Z,101189.06
2022-10-08T08:56:16.139Z,101181.16
2022-10-08T08:58:51.650Z,101182.91
2022-10-08T09:01:31.147Z,101168.66
2022-10-08T09:04:06.733Z,101170.56
2022-10-08T09:06:35.578Z,101171.00
2022-10-08T09:09:31.831Z,101168.78
2022-10-08T09:11:59.155Z,101179.69
2022-10-08T09:14:37.484Z,101181.25
2022-10-08T09:17:21.599Z,101177.13
2022-10-08T09:19:49.717Z,101176.28
2022-10-08T09:22:40.699Z,101179.28
2022-10-08T09:25:15.388Z,101168.78
2022-10-08T09:28:00.318Z,101166.31
2022-10-08T09:30:33.229Z,101163.88
2022-10-08T09:33:04.966Z,101162.22
2022-10-08T09:35:34.534Z,101159.47
2022-10-08T09:38:05.695Z,101148.38
2022-10-08T09:40:33.111Z,101140.59
2022-10-08T09:43:12.604Z,101146.97
2022-10-08T09:45:46.536Z,101143.44
2022-10-08T09:48:22.410Z,101162.03
2022-10-08T09:50:51.632Z,101158.78
2022-10-08T09:53:20.322Z,101154.81
2022-10-08T09:55:55.203Z,101139.41
2022-10-08T09:58:22.581Z,101144.50
2022-10-08T10:01:07.680Z,101128.78
2022-10-08T10:03:35.588Z,101122.81
2022-10-08T10:06:02.822Z,101120.28
2022-10-08T10:08:54.527Z,101117.56
2022-10-08T10:11:28.991Z,101129.66
2022-10-08T10:14:01.624Z,101134.63
2022-10-08T10:16:40.288Z,101121.69
2022-10-08T10:19:16.229Z,101119.16
2022-10-08T10:21:59.694Z,101111.34
2022-10-08T10:24:45.866Z,101120.00
2022-10-08T10:27:19.624Z,101117.31
2022-10-08T10:30:15.915Z,101119.50
2022-10-08T10:33:01.875Z,101107.09
2022-10-08T10:35:30.962Z,101098.16
2022-10-08T10:38:29.262Z,101096.72
2022-10-08T10:41:14.232Z,101105.31
2022-10-08T10:44:02.597Z,101100.50
2022-10-08T10:46:39.861Z,101099.38
2022-10-08T10:49:17.483Z,101094.00
2022-10-08T10:52:08.401Z,101085.66
2022-10-08T10:54:57.125Z,101093.22
2022-10-08T10:57:47.796Z,101083.78
2022-10-08T11:00:19.185Z,101079.94
2022-10-08T11:03:07.787Z,101063.34
2022-10-08T11:05:36.846Z,101065.78
2022-10-08T11:08:03.673Z,101058.31
2022-10-08T11:10:32.101Z,101054.13
2022-10-08T11:13:17.964Z,101054.22
2022-10-08T11:16:05.484Z,101043.56
2022-10-08T11:18:53.086Z,101049.09
2022-10-08T11:21:30.997Z,101042.91
2022-10-08T11:24:13.833Z,101038.56
2022-10-08T11:27:03.659Z,101031.50
2022-10-08T11:29:49.164Z,101028.50
2022-10-08T11:32:19.464Z,101014.81
2022-10-08T11:35:21.680Z,101018.06
2022-10-08T11:38:12.217Z,100997.66
2022-10-08T11:40:49.323Z,101013.63
2022-10-08T11:43:28.316Z,101004.25
2022-10-08T11:46:33.598Z,101009.16
2022-10-08T11:49:01.670Z,100994.72
2022-10-08T11:51:31.962Z,100993.41
2022-10-08T11:54:01.626Z,100989.03
2022-10-08T11:56:29.224Z,100991.41
2022-10-08T11:59:00.128Z,100986.63
2022-10-08T12:01:27.110Z,100993.16
2022-10-08T12:04:19.862Z,100991.59
2022-10-08T12:06:48.856Z,100974.38
2022-10-08T12:09:23.832Z,100975.97
2022-10-08T12:11:53.097Z,100975.06
2022-10-08T12:14:19.946Z,100977.66
2022-10-08T12:17:07.531Z,100980.72
2022-10-08T12:19:34.398Z,100980.25
2022-10-08T12:22:25.569Z,100967.53
2022-10-08T12:24:57.266Z,100957.66
2022-10-08T12:27:31.629Z,100963.97
2022-10-08T12:30:04.511Z,100966.75
2022-10-08T12:32:51.197Z,100969.22
2022-10-08T12:35:30.075Z,100967.44
2022-10-08T12:38:23.158Z,100970.72
2022-10-08T12:40:56.303Z,100968.69
2022-10-08T12:44:00.370Z,100951.19
2022-10-08T12:46:34.328Z,100947.78
2022-10-08T12:49:22.119Z,100942.56
2022-10-08T12:52:21.252Z,100940.34
2022-10-08T12:54:57.512Z,100944.19
2022-10-08T12:57:30.320Z,100943.66
2022-10-08T13:00:10.380Z,100948.53
2022-10-08T13:02:40.353Z,100953.38
2022-10-08T13:05:45.425Z,100946.34
2022-10-08T13:08:18.024Z,100946.81
2022-10-08T13:10:45.058Z,100944.28
2022-10-08T13:13:35.693Z,100938.06
2022-10-08T13:16:04.417Z,100951.09
2022-10-08T13:18:33.259Z,100945.66
2022-10-08T13:21:02.844Z,100940.38
2022-10-08T13:23:42.977Z,100937.16
2022-10-08T13:26:37.863Z,100943.34
2022-10-08T13:29:24.095Z,100940.75
2022-10-08T13:31:59.996Z,100940.13
2022-10-08T13:34:31.576Z,100935.38
2022-10-08T13:37:01.881Z,100939.59
2022-10-08T13:39:54.518Z,100927.19
2022-10-08T13:42:28.187Z,100935.50
2022-10-08T13:44:55.497Z,100928.06
2022-10-08T13:47:23.464Z,100928.16
2022-10-08T13:49:50.714Z,100922.59
2022-10-08T13:52:24.013Z,100920.97
2022-10-08T13:54:58.925Z,100920.72
2022-10-08T13:57:25.985Z,100911.63
2022-10-08T13:59:52.994Z,100914.59
2022-10-08T14:02:19.938Z,100920.13
2022-10-08T14:04:47.310Z,100915.84
2022-10-08T14:07:31.248Z,100920.91
2022-10-08T14:10:00.523Z,100910.75
2022-10-08T14:12:32.372Z,100910.97
2022-10-08T14:14:59.902Z,100909.50
2022-10-08T14:17:27.318Z,100909.72
2022-10-08T14:19:57.363Z,100913.28
2022-10-08T14:22:24.366Z,100909.94
2022-10-08T14:24:51.771Z,100908.63
2022-10-08T14:27:18.695Z,100910.03
2022-10-08T14:29:45.568Z,100907.13
2022-10-08T14:32:12.526Z,100908.44
2022-10-08T14:34:39.489Z,100896.97
2022-10-08T14:37:06.900Z,100904.22
2022-10-08T14:39:33.935Z,100904.66
2022-10-08T14:42:00.813Z,100910.97
2022-10-08T14:44:27.790Z,100903.22
2022-10-08T14:46:54.909Z,100909.69
2022-10-08T14:49:22.351Z,100918.06
2022-10-08T14:51:49.296Z,100917.84
2022-10-08T14:54:18.038Z,100916.59
2022-10-08T14:56:46.183Z,100922.28
2022-10-08T14:59:13.416Z,100927.28
2022-10-08T15:01:40.392Z,100937.78
2022-10-08T15:04:07.961Z,100929.66
2022-10-08T15:06:35.071Z,100930.63
2022-10-08T15:09:02.118Z,100931.53
2022-10-08T15:11:29.157Z,100930.78
2022-10-08T15:13:56.399Z,100929.88
2022-10-08T15:16:23.349Z,100928.38
2022-10-08T15:18:50.277Z,100935.53
2022-10-08T15:21:18.329Z,100932.88
2022-10-08T15:23:45.325Z,100939.84
2022-10-08T15:26:17.414Z,100936.44
2022-10-08T15:28:46.418Z,100950.16
2022-10-08T15:31:17.830Z,100950.22
2022-10-08T15:33:47.615Z,100950.41
2022-10-08T15:36:19.557Z,100948.47
2022-10-08T15:38:47.501Z,100952.41
2022-10-08T15:41:17.526Z,100953.28
2022-10-08T15:43:44.852Z,100954.56
2022-10-08T15:46:16.260Z,100954.81
2022-10-08T15:48:51.373Z,100962.75
2022-10-08T15:51:18.174Z,100970.06
2022-10-08T15:53:45.030Z,100969.63
2022-10-08T15:56:14.791Z,100970.94
2022-10-08T15:58:51.148Z,100970.00
2022-10-08T16:01:22.136Z,100964.16
2022-10-08T16:03:51.094Z,100978.34
2022-10-08T16:06:20.756Z,100982.16
2022-10-08T16:08:47.705Z,100985.97
2022-10-08T16:11:17.258Z,100985.31
2022-10-08T16:13:46.246Z,100983.06
2022-10-08T16:16:15.313Z,100985.44
2022-10-08T16:18:43.167Z,100994.28
2022-10-08T16:21:11.322Z,100998.75
2022-10-08T16:23:38.647Z,101001.41
2022-10-08T16:26:12.110Z,101005.34
2022-10-08T16:28:40.941Z,101019.25
2022-10-08T16:31:08.940Z,101018.41
2022-10-08T16:33:36.070Z,101015.31
2022-10-08T16:36:06.096Z,101018.44
2022-10-08T16:38:34.735Z,101022.66
2022-10-08T16:41:25.840Z,101016.84
2022-10-08T16:43:55.506Z,101020.00
2022-10-08T16:46:33.826Z,101029.63
2022-10-08T16:49:01.894Z,101017.03
2022-10-08T16:51:31.695Z,101024.28
2022-10-08T16:54:03.207Z,101027.47
2022-10-08T16:56:33.176Z,101027.75
2022-10-08T16:59:03.911Z,101035.75
2022-10-08T17:01:31.088Z,101030.44
2022-10-08T17:03:58.498Z,101027.03
2022-10-08T17:06:27.900Z,101023.34
2022-10-08T17:08:55.437Z,101031.47
2022-10-08T17:11:22.460Z,101031.28
2022-10-08T17:13:51.999Z,101031.66
2022-10-08T17:16:21.394Z,101037.88
2022-10-08T17:18:51.623Z,101031.97
2022-10-08T17:21:18.753Z,101033.22
2022-10-08T17:23:46.287Z,101032.41
2022-10-08T17:26:16.382Z,101031.66
2022-10-08T17:28:45.698Z,101042.31
2022-10-08T17:31:18.857Z,101044.38
2022-10-08T17:33:46.531Z,101045.25
2022-10-08T17:36:28.134Z,101048.31
2022-10-08T17:38:57.750Z,101045.53
2022-10-08T17:41:30.161Z,101044.44
2022-10-08T17:43:59.580Z,101048.16
2022-10-08T17:46:29.169Z,101039.69
2022-10-08T17:48:57.008Z,101044.50
2022-10-08T17:51:26.219Z,101046.06
2022-10-08T17:53:55.427Z,101041.13
2022-10-08T17:56:23.473Z,101039.25
2022-10-08T17:58:50.783Z,101036.72
2022-10-08T18:01:25.917Z,101036.41
2022-10-08T18:03:54.113Z,101043.94
2022-10-08T18:06:22.910Z,101044.13
2022-10-08T18:08:55.200Z,101042.97
2022-10-08T18:11:22.727Z,101043.03
2022-10-08T18:13:49.914Z,101043.66
2022-10-08T18:16:18.195Z,101041.47
2022-10-08T18:18:46.045Z,101033.63
2022-10-08T18:21:14.698Z,101033.22
2022-10-08T18:23:43.013Z,101038.88
2022-10-08T18:26:17.599Z,101047.69
2022-10-08T18:28:46.405Z,101049.78
2022-10-08T18:31:14.678Z,101045.69
2022-10-08T18:33:43.889Z,101049.78
2022-10-08T18:36:17.191Z,101045.53
2022-10-08T18:38:46.454Z,101047.13
2022-10-08T18:41:17.257Z,101043.41
2022-10-08T18:43:45.534Z,101042.69
2022-10-08T18:46:14.125Z,101037.72
2022-10-08T18:48:41.300Z,101036.72
2022-10-08T18:51:14.103Z,101041.44
2022-10-08T18:53:42.833Z,101037.25
2022-10-08T18:56:15.892Z,101039.56
2022-10-08T18:58:43.103Z,101040.41
2022-10-08T19:01:19.103Z,101038.81
2022-10-08T19:03:48.319Z,101042.28
2022-10-08T19:06:17.054Z,101039.41
2022-10-08T19:08:44.158Z,101034.16
2022-10-08T19:11:20.043Z,101037.56
2022-10-08T19:13:47.310Z,101038.97
2022-10-08T19:16:15.615Z,101037.19
2022-10-08T19:18:44.897Z,101038.31
2022-10-08T19:21:13.308Z,101027.59
2022-10-08T19:23:40.430Z,101032.56
2022-10-08T19:26:07.548Z,101039.34
2022-10-08T19:28:37.172Z,101038.25
2022-10-08T19:31:27.631Z,101044.56
2022-10-08T19:33:57.289Z,101043.13
2022-10-08T19:36:25.632Z,101027.91
2022-10-08T19:39:20.320Z,101034.09
2022-10-08T19:41:47.301Z,101031.66
2022-10-08T19:44:14.653Z,101037.31
2022-10-08T19:46:41.756Z,101035.16
2022-10-08T19:49:10.005Z,101027.47
2022-10-08T19:51:37.587Z,101033.44
2022-10-08T19:54:05.075Z,101030.72
2022-10-08T19:56:32.110Z,101027.25
2022-10-08T19:58:59.888Z,101025.16
2022-10-08T20:01:30.407Z,101018.19
2022-10-08T20:04:00.303Z,101018.16
2022-10-08T20:06:30.190Z,101014.66
2022-10-08T20:08:59.955Z,101011.31
2022-10-08T20:11:28.555Z,101010.53
2022-10-08T20:13:55.569Z,101005.38
2022-10-08T20:16:25.043Z,101011.81
2022-10-08T20:19:19.464Z,101009.97
2022-10-08T20:21:47.737Z,101009.59
2022-10-08T20:24:18.331Z,101006.94
2022-10-08T20:26:45.947Z,101011.06
2022-10-08T20:29:19.432Z,101012.84
2022-10-08T20:31:55.003Z,101012.19
2022-10-08T20:34:26.984Z,101011.69
2022-10-08T20:36:54.105Z,101011.25
2022-10-08T20:39:22.276Z,101003.75
2022-10-08T20:41:50.109Z,100997.19
2022-10-08T20:44:17.439Z,101000.34
2022-10-08T20:46:44.829Z,101000.13
2022-10-08T20:49:13.187Z,100991.91
2022-10-08T20:51:41.546Z,100992.47
2022-10-08T20:54:14.074Z,100997.41
2022-10-08T20:56:41.883Z,101005.72
2022-10-08T20:59:10.637Z,101001.50
2022-10-08T21:01:38.886Z,100998.41
2022-10-08T21:04:06.725Z,100997.69
2022-10-08T21:06:48.507Z,100995.19
2022-10-08T21:09:17.450Z,100991.53
2022-10-08T21:11:47.768Z,100992.50
2022-10-08T21:14:20.086Z,100991.16
2022-10-08T21:16:47.306Z,100992.69
2022-10-08T21:19:19.201Z,100986.31
2022-10-08T21:21:46.091Z,100988.97
2022-10-08T21:24:12.992Z,100988.31
2022-10-08T21:26:42.271Z,100992.38
2022-10-08T21:29:11.609Z,100991.84
2022-10-08T21:31:39.969Z,100988.56
2022-10-08T21:34:07.223Z,100979.44
2022-10-08T21:36:38.860Z,100984.59
2022-10-08T21:39:07.966Z,100989.78
2022-10-08T21:41:37.077Z,100988.00
2022-10-08T21:44:07.073Z,100979.91
2022-10-08T21:46:37.054Z,100986.69
2022-10-08T21:49:06.646Z,100978.16
2022-10-08T21:51:35.429Z,100975.25
2022-10-08T21:54:04.290Z,100975.53
2022-10-08T21:56:34.451Z,100982.75
2022-10-08T21:59:02.750Z,100977.53
2022-10-08T22:01:31.433Z,100970.25
2022-10-08T22:04:02.218Z,100973.75
2022-10-08T22:06:31.890Z,100971.69
2022-10-08T22:08:59.951Z,100965.34
2022-10-08T22:11:27.333Z,100963.78
2022-10-08T22:13:54.363Z,100968.50
2022-10-08T22:16:22.862Z,100976.94
2022-10-08T22:18:49.801Z,100971.59
2022-10-08T22:21:19.468Z,100965.97
2022-10-08T22:23:47.519Z,100966.91
2022-10-08T22:26:17.096Z,100963.47
2022-10-08T22:28:44.469Z,100974.97
2022-10-08T22:31:13.478Z,100971.00
2022-10-08T22:33:40.988Z,100962.47
2022-10-08T22:36:14.213Z,100964.34
2022-10-08T22:38:42.475Z,100968.84
2022-10-08T22:41:15.518Z,100959.84
2022-10-08T22:43:42.933Z,100961.13
2022-10-08T22:46:13.046Z,100960.84
2022-10-08T22:48:40.303Z,100958.22
2022-10-08T22:51:10.759Z,100958.28
2022-10-08T22:53:38.168Z,100967.66
2022-10-08T22:56:06.922Z,100957.38
2022-10-08T22:58:34.998Z,100953.97
2022-10-08T23:01:04.974Z,100954.88
2022-10-08T23:03:32.007Z,100954.84
2022-10-08T23:06:02.911Z,100953.09
2022-10-08T23:08:29.919Z,100954.53
2022-10-08T23:10:58.178Z,100952.84
2022-10-08T23:13:25.947Z,100959.88
2022-10-08T23:16:04.738Z,100953.78
2022-10-08T23:18:33.488Z,100957.22
2022-10-08T23:21:04.994Z,100955.34
2022-10-08T23:23:33.033Z,100961.59
2022-10-08T23:26:02.250Z,100961.00
2022-10-08T23:28:30.868Z,100964.44
2022-10-08T23:31:10.658Z,100966.38
2022-10-08T23:33:39.520Z,100975.03
2022-10-08T23:36:08.483Z,100964.91
2022-10-08T23:38:37.023Z,100961.47
2022-10-08T23:41:06.810Z,100966.63
2022-10-08T23:43:38.696Z,100969.16
2022-10-08T23:46:07.014Z,100968.25
2022-10-08T23:48:34.574Z,100965.31
2022-10-08T23:51:02.268Z,100957.19
2022-10-08T23:53:29.626Z,100958.69
2022-10-08T23:55:56.677Z,100965.28
2022-10-08T23:58:23.577Z,100966.22
